Time;durP1;ratioP1;P1;durP2;ratioP2;P2;SDS_P1;SDS_P2;PMS_P1;PMS_P2;Temp;Humidity;BMP_temperature;BMP_pressure;BME280_temperature;BME280_humidity;BME280_pressure;Samples;Min_cycle;Max_cycle;Signal;HPM_P1;HPM_P2
2023/05/26 00:01:54;;;;;;;6.80;4.50;;;10.30;99.90;11.00;94759.00;;;;7396742;19;20173;-77
2023/05/26 00:04:27;;;;;;;8.20;5.10;;;10.20;99.90;11.00;94766.00;;;;7398358;19;20144;-80
2023/05/26 00:07:01;;;;;;;7.38;5.00;;;10.10;99.90;10.90;94779.00;;;;7399064;19;20143;-76
2023/05/26 00:09:49;;;;;;;10.23;5.50;;;10.00;99.90;10.90;94787.00;;;;7397177;19;20608;-77
2023/05/26 00:12:23;;;;;;;7.57;5.07;;;10.00;99.90;10.80;94774.00;;;;7399376;19;20632;-78
2023/05/26 00:14:56;;;;;;;9.43;5.25;;;9.90;99.90;10.70;94788.00;;;;7396629;19;20161;-76
2023/05/26 00:17:24;;;;;;;9.15;5.47;;;9.90;99.90;10.80;94784.00;;;;7396570;19;20208;-76
2023/05/26 00:20:01;;;;;;;9.48;5.10;;;9.80;99.90;10.80;94782.00;;;;7397772;19;20145;-78
2023/05/26 00:22:28;;;;;;;12.93;5.53;;;9.90;99.90;10.70;94786.00;;;;7397865;19;20611;-78
2023/05/26 00:25:03;;;;;;;9.38;5.53;;;9.80;99.90;10.70;94802.00;;;;7398810;19;20135;-78
2023/05/26 00:27:30;;;;;;;7.53;5.25;;;9.80;99.90;10.80;94743.00;;;;7399251;19;20143;-77
2023/05/26 00:29:58;;;;;;;9.63;5.70;;;9.80;99.90;10.80;94773.00;;;;7396858;19;20204;-77
2023/05/26 00:32:31;;;;;;;7.25;4.95;;;9.90;99.90;10.80;94776.00;;;;7397441;19;20602;-76
2023/05/26 00:35:06;;;;;;;8.00;5.07;;;9.90;99.90;11.00;94796.00;;;;7396599;19;20145;-77
2023/05/26 00:37:40;;;;;;;9.38;5.18;;;9.90;99.90;10.80;94775.00;;;;7398396;19;20125;-76
2023/05/26 00:40:14;;;;;;;7.40;5.35;;;9.90;99.90;10.80;94789.00;;;;7399031;19;20125;-77
2023/05/26 00:42:41;;;;;;;15.15;5.30;;;10.00;99.90;11.00;94791.00;;;;7398892;19;20143;-77
2023/05/26 00:45:15;;;;;;;6.63;5.18;;;10.00;99.90;11.00;94779.00;;;;7397062;19;20145;-77
2023/05/26 00:47:42;;;;;;;10.82;5.50;;;10.10;99.90;11.10;94768.00;;;;7398637;19;20122;-75
2023/05/26 00:50:16;;;;;;;9.05;4.97;;;10.10;99.90;11.00;94789.00;;;;7398682;19;20133;-77
2023/05/26 00:52:44;;;;;;;11.25;5.10;;;10.10;99.90;11.20;94769.00;;;;7398126;19;20161;-76
2023/05/26 00:55:20;;;;;;;6.88;4.55;;;10.20;99.90;11.20;94781.00;;;;7394952;19;20141;-76
2023/05/26 00:57:53;;;;;;;10.38;5.22;;;10.20;99.90;11.10;94784.00;;;;7396544;19;20534;-77
2023/05/26 01:00:28;;;;;;;8.73;5.38;;;10.20;97.60;11.10;94785.00;;;;7396737;19;20137;-70
2023/05/26 01:02:57;;;;;;;11.07;5.47;;;10.10;58.50;10.90;94767.00;;;;7389707;19;20189;-77
2023/05/26 01:05:37;;;;;;;9.10;5.45;;;10.10;55.60;10.80;94776.00;;;;7394465;19;20155;-77
2023/05/26 01:08:04;;;;;;;9.50;4.75;;;10.00;90.30;10.80;94751.00;;;;7400383;19;20562;-77
2023/05/26 01:10:38;;;;;;;8.50;5.50;;;9.90;79.40;10.70;94774.00;;;;7404376;19;20199;-77
2023/05/26 01:13:15;;;;;;;8.05;5.30;;;9.90;95.00;10.80;94748.00;;;;7401825;19;20148;-77
2023/05/26 01:16:18;;;;;;;10.00;4.88;;;9.90;58.20;10.80;94775.00;;;;7400539;19;20469;-77
2023/05/26 01:19:13;;;;;;;10.52;5.00;;;9.90;84.20;10.70;94771.00;;;;7403610;19;20150;-77
2023/05/26 01:21:54;;;;;;;11.48;5.03;;;9.90;82.30;10.60;94775.00;;;;7401686;19;20155;-76
2023/05/26 01:24:47;;;;;;;7.22;5.20;;;9.80;99.90;10.70;94747.00;;;;7401875;19;20212;-77
2023/05/26 01:27:48;;;;;;;8.60;5.30;;;9.70;99.90;10.50;94774.00;;;;7402946;19;20127;-77
2023/05/26 01:30:16;;;;;;;10.07;5.63;;;9.70;99.90;10.60;94766.00;;;;7402827;19;20145;-76
2023/05/26 01:32:50;;;;;;;9.82;5.93;;;9.70;99.90;10.70;94768.00;;;;7403512;19;20133;-77
2023/05/26 01:35:18;;;;;;;10.95;5.35;;;9.70;99.90;10.70;94757.00;;;;7401770;19;20137;-77
2023/05/26 01:37:52;;;;;;;7.13;5.22;;;9.80;99.90;10.80;94770.00;;;;7402916;19;20177;-77
2023/05/26 01:40:20;;;;;;;10.02;5.63;;;9.80;92.70;10.90;94758.00;;;;7400834;19;20501;-77
2023/05/26 01:43:08;;;;;;;8.60;5.00;;;9.90;50.10;10.90;94750.00;;;;7401059;19;20509;-76
2023/05/26 01:46:13;;;;;;;9.45;4.95;;;10.00;43.00;11.00;94738.00;;;;7400565;19;20484;-76
2023/05/26 01:48:45;;;;;;;8.95;4.93;;;10.10;30.50;11.10;94767.00;;;;7401977;19;20208;-77
2023/05/26 01:51:21;;;;;;;8.10;4.95;;;10.10;1.80;11.00;94757.00;;;;7401036;19;20479;-77
2023/05/26 01:53:55;;;;;;;10.65;5.28;;;10.10;1.00;11.10;94753.00;;;;7401317;19;20517;-76
2023/05/26 01:56:32;;;;;;;10.38;5.75;;;10.20;1.00;11.00;94748.00;;;;7400491;19;20157;-76
2023/05/26 01:59:01;;;;;;;6.50;5.35;;;10.20;1.00;11.00;94761.00;;;;7400702;19;20479;-77
2023/05/26 02:01:35;;;;;;;10.02;5.65;;;10.20;1.00;11.10;94742.00;;;;7401409;19;20164;-76
2023/05/26 02:04:11;;;;;;;10.98;5.43;;;10.30;1.00;11.10;94759.00;;;;7397875;19;20593;-77
2023/05/26 02:06:46;;;;;;;14.10;5.75;;;10.30;1.00;11.10;94759.00;;;;7400153;19;20125;-77
2023/05/26 02:09:20;;;;;;;14.77;5.57;;;10.30;1.00;11.10;94745.00;;;;7400759;19;20596;-77
2023/05/26 02:11:54;;;;;;;10.07;5.53;;;10.30;1.00;11.10;94761.00;;;;7399794;19;20464;-77
2023/05/26 02:14:22;;;;;;;9.15;5.40;;;10.30;1.00;11.00;94755.00;;;;7399171;19;20605;-77
2023/05/26 02:16:55;;;;;;;9.77;5.95;;;10.30;1.00;11.10;94763.00;;;;7399542;19;20136;-77
2023/05/26 02:19:29;;;;;;;8.23;5.15;;;10.30;1.00;11.00;94763.00;;;;7398054;19;20444;-76
2023/05/26 02:21:56;;;;;;;9.75;5.50;;;10.40;1.00;11.10;94757.00;;;;7401110;19;20137;-77
2023/05/26 02:24:30;;;;;;;11.95;5.95;;;10.40;1.00;11.00;94762.00;;;;7399732;19;20125;-77
2023/05/26 02:26:57;;;;;;;12.02;5.72;;;10.40;1.00;11.20;94733.00;;;;7399296;19;20631;-77
2023/05/26 02:29:31;;;;;;;12.38;5.35;;;10.40;1.00;11.20;94751.00;;;;7400726;19;20608;-77
2023/05/26 02:31:58;;;;;;;15.10;5.55;;;10.40;1.00;11.10;94732.00;;;;7401018;19;20491;-77
2023/05/26 02:34:32;;;;;;;9.38;5.53;;;10.30;1.00;11.10;94751.00;;;;7400876;19;20212;-77
2023/05/26 02:37:06;;;;;;;11.95;5.85;;;10.30;1.00;11.10;94740.00;;;;7398749;19;20148;-77
2023/05/26 02:39:40;;;;;;;9.82;5.78;;;10.30;1.00;11.00;94744.00;;;;7399401;19;20149;-77
2023/05/26 02:42:07;;;;;;;11.05;5.57;;;10.30;1.00;10.90;94717.00;;;;7400401;19;20136;-77
2023/05/26 02:44:42;;;;;;;13.23;6.03;;;10.20;1.00;10.90;94739.00;;;;7400033;19;20133;-76
2023/05/26 02:47:17;;;;;;;9.07;5.90;;;10.20;1.00;10.70;94730.00;;;;7398249;19;20137;-76
2023/05/26 02:49:50;;;;;;;10.40;5.47;;;10.10;1.00;10.80;94755.00;;;;7398720;19;20172;-76
2023/05/26 02:52:25;;;;;;;14.27;6.30;;;10.10;1.00;10.80;94761.00;;;;7398971;19;20141;-77
2023/05/26 02:54:59;;;;;;;12.20;5.57;;;10.10;1.00;10.80;94734.00;;;;7398434;19;20610;-77
2023/05/26 02:57:33;;;;;;;12.65;6.13;;;10.10;1.00;10.70;94725.00;;;;7398305;19;20165;-77
2023/05/26 03:00:10;;;;;;;10.95;5.95;;;10.00;1.00;10.80;94759.00;;;;7397764;19;20196;-77
2023/05/26 03:02:44;;;;;;;10.45;5.70;;;10.10;1.00;10.70;94740.00;;;;7397600;19;20168;-77
2023/05/26 03:05:25;;;;;;;9.80;5.80;;;10.00;1.00;10.70;94729.00;;;;7399949;19;20593;-77
2023/05/26 03:08:06;;;;;;;11.85;6.32;;;10.00;1.00;10.70;94732.00;;;;7398275;19;20637;-77
2023/05/26 03:10:34;;;;;;;11.73;4.97;;;10.00;1.00;10.70;94736.00;;;;7398203;19;20627;-76
2023/05/26 03:13:07;;;;;;;12.95;5.80;;;9.90;1.00;10.60;94754.00;;;;7399350;19;20132;-77
2023/05/26 03:15:36;;;;;;;13.20;6.28;;;9.90;1.00;10.50;94740.00;;;;7397913;19;20133;-77
2023/05/26 03:18:10;;;;;;;12.05;6.07;;;9.90;1.00;10.50;94736.00;;;;7400439;19;20611;-76
2023/05/26 03:20:37;;;;;;;10.43;6.18;;;9.90;1.00;10.50;94748.00;;;;7398299;19;20169;-77
2023/05/26 03:23:11;;;;;;;11.00;5.80;;;9.80;1.00;10.40;94743.00;;;;7398138;19;20651;-77
2023/05/26 03:25:45;;;;;;;15.00;5.95;;;9.80;1.00;10.30;94746.00;;;;7390684;19;20133;-76
2023/05/26 03:28:13;;;;;;;10.30;6.38;;;9.80;25.90;10.30;94730.00;;;;7396850;19;20584;-77
2023/05/26 03:30:46;;;;;;;9.30;6.40;;;9.70;39.60;10.30;94734.00;;;;7384804;19;20161;-76
2023/05/26 03:33:20;;;;;;;9.18;5.63;;;9.60;38.30;10.20;94725.00;;;;7397106;19;20133;-77
2023/05/26 03:35:55;;;;;;;9.65;6.05;;;9.50;44.70;10.00;94717.00;;;;7395517;19;20483;-77
2023/05/26 03:38:22;;;;;;;8.70;6.13;;;9.40;76.50;9.90;94725.00;;;;7397236;19;20176;-79
2023/05/26 03:40:55;;;;;;;12.27;6.10;;;9.30;99.90;9.80;94727.00;;;;7398205;19;20157;-77
2023/05/26 03:43:22;;;;;;;12.48;6.50;;;9.30;99.90;9.80;94735.00;;;;7394941;19;20160;-73
2023/05/26 03:45:56;;;;;;;11.85;6.32;;;9.20;99.90;9.70;94748.00;;;;7393010;19;20192;-73
2023/05/26 03:48:23;;;;;;;8.60;5.53;;;9.10;99.90;9.70;94735.00;;;;7396418;19;20132;-73
2023/05/26 03:50:57;;;;;;;9.05;5.90;;;9.10;99.90;9.50;94712.00;;;;7396935;19;20133;-73
2023/05/26 03:53:31;;;;;;;9.50;6.57;;;9.10;99.90;9.60;94754.00;;;;7396079;19;20204;-73
2023/05/26 03:56:06;;;;;;;10.52;6.15;;;9.00;99.90;9.30;94746.00;;;;7395841;19;20144;-72
2023/05/26 03:58:33;;;;;;;9.38;6.00;;;8.90;99.90;9.40;94722.00;;;;7396197;19;20587;-75
2023/05/26 04:01:08;;;;;;;15.02;6.15;;;8.90;99.90;9.40;94757.00;;;;7397130;19;20137;-72
2023/05/26 04:03:43;;;;;;;15.30;6.33;;;8.90;99.90;9.40;94733.00;;;;7394667;19;20175;-73
2023/05/26 04:06:17;;;;;;;14.43;6.30;;;8.80;99.90;9.40;94727.00;;;;7398029;19;20647;-73
2023/05/26 04:08:47;;;;;;;9.90;6.18;;;8.80;99.90;9.40;94746.00;;;;7396823;19;20619;-72
2023/05/26 04:11:22;;;;;;;11.97;6.87;;;8.80;1.00;9.50;94742.00;;;;7397726;19;20616;-73
2023/05/26 04:13:49;;;;;;;12.55;6.53;;;8.80;1.00;9.40;94737.00;;;;7397043;19;20133;-73
2023/05/26 04:16:23;;;;;;;12.00;6.45;;;8.80;1.00;9.40;94739.00;;;;7386912;19;20128;-75
2023/05/26 04:18:50;;;;;;;10.50;6.53;;;8.80;1.00;9.40;94725.00;;;;7395397;19;20474;-75
2023/05/26 04:21:24;;;;;;;10.77;6.37;;;8.80;1.00;9.50;94735.00;;;;7396221;19;20228;-73
2023/05/26 04:23:52;;;;;;;10.32;5.88;;;8.80;1.00;9.50;94715.00;;;;7395878;19;20608;-72
2023/05/26 04:26:19;;;;;;;11.02;6.10;;;8.80;1.00;9.50;94742.00;;;;7396849;19;20585;-73
2023/05/26 04:28:53;;;;;;;13.05;6.30;;;8.80;1.00;9.50;94730.00;;;;7395246;19;20204;-72
2023/05/26 04:31:30;;;;;;;13.95;7.22;;;8.80;1.00;9.50;94726.00;;;;7379221;19;20129;-73
2023/05/26 04:33:58;;;;;;;12.60;6.50;;;8.90;1.00;9.50;94736.00;;;;7371640;19;20586;-73
2023/05/26 04:36:32;;;;;;;8.82;5.50;;;8.90;1.00;9.60;94725.00;;;;7380821;19;20497;-73
2023/05/26 04:39:07;;;;;;;11.40;6.88;;;8.90;1.00;9.60;94716.00;;;;7380199;19;20149;-73
2023/05/26 04:41:41;;;;;;;9.77;6.23;;;8.90;99.90;9.60;94745.00;;;;7380131;19;20152;-73
2023/05/26 04:44:11;;;;;;;8.43;6.23;;;9.00;99.90;9.70;94755.00;;;;7386640;19;20612;-73
2023/05/26 04:46:45;;;;;;;10.07;6.67;;;9.00;99.90;9.70;94749.00;;;;7387665;19;20151;-73
2023/05/26 04:49:13;;;;;;;8.35;6.22;;;9.00;99.90;9.70;94742.00;;;;7386812;19;20247;-75
2023/05/26 04:51:40;;;;;;;12.35;6.85;;;9.00;99.90;9.80;94725.00;;;;7385860;19;20259;-72
2023/05/26 04:54:14;;;;;;;12.68;6.38;;;9.10;99.90;9.90;94726.00;;;;7388013;19;20121;-73
2023/05/26 04:56:42;;;;;;;11.55;6.30;;;9.10;99.90;9.90;94723.00;;;;7386160;19;20133;-72
2023/05/26 04:59:17;;;;;;;11.52;6.25;;;9.10;99.90;10.10;94750.00;;;;7385710;19;20461;-72
2023/05/26 05:01:46;;;;;;;20.20;7.82;;;9.20;99.90;10.20;94730.00;;;;7385626;19;20156;-73
2023/05/26 05:04:27;;;;;;;10.27;6.00;;;9.30;99.90;10.30;94746.00;;;;7385412;19;20253;-73
2023/05/26 05:06:55;;;;;;;13.68;7.15;;;9.50;99.90;10.50;94741.00;;;;7385788;19;20148;-74
2023/05/26 05:09:29;;;;;;;14.48;6.70;;;9.60;99.90;10.70;94729.00;;;;7386106;19;20257;-74
2023/05/26 05:11:56;;;;;;;10.25;6.07;;;9.70;99.90;10.90;94740.00;;;;7386167;19;20579;-73
2023/05/26 05:14:31;;;;;;;14.73;7.00;;;9.80;99.90;11.00;94728.00;;;;7378586;19;20214;-73
2023/05/26 05:16:58;;;;;;;9.93;5.97;;;10.00;99.90;11.30;94740.00;;;;7378713;19;20186;-73
2023/05/26 05:19:26;;;;;;;8.75;6.15;;;10.20;46.10;11.70;94721.00;;;;7384761;19;20148;-75
2023/05/26 05:22:00;;;;;;;11.00;7.00;;;10.40;15.70;12.00;94724.00;;;;7376679;19;21928;-73
2023/05/26 05:24:34;;;;;;;11.88;6.88;;;10.60;1.00;12.20;94745.00;;;;7384111;19;20156;-73
2023/05/26 05:27:06;;;;;;;9.43;6.28;;;10.80;1.00;12.40;94720.00;;;;7386102;19;20141;-74
2023/05/26 05:29:40;;;;;;;12.13;6.53;;;11.00;1.00;12.70;94751.00;;;;7386668;19;20510;-74
2023/05/26 05:32:07;;;;;;;10.93;6.60;;;11.20;1.00;12.80;94727.00;;;;7376652;19;20133;-74
2023/05/26 05:34:41;;;;;;;13.25;6.93;;;11.40;1.00;13.00;94745.00;;;;7385478;19;20160;-74
2023/05/26 05:37:15;;;;;;;19.15;7.63;;;11.60;1.00;13.10;94742.00;;;;7384310;19;20136;-73
2023/05/26 05:39:49;;;;;;;11.77;7.13;;;11.70;1.00;13.30;94746.00;;;;7379372;19;20156;-73
2023/05/26 05:42:17;;;;;;;12.32;6.82;;;11.80;1.00;13.30;94729.00;;;;7384394;19;20129;-73
2023/05/26 05:44:51;;;;;;;10.77;6.88;;;12.00;1.00;13.30;94733.00;;;;7385636;19;20592;-74
2023/05/26 05:47:18;;;;;;;12.48;6.07;;;12.00;1.00;13.60;94719.00;;;;7385842;19;20507;-77
2023/05/26 05:49:51;;;;;;;12.02;7.05;;;12.20;1.00;13.70;94731.00;;;;7384547;19;20133;-73
2023/05/26 05:52:19;;;;;;;11.27;5.88;;;12.30;1.00;13.90;94737.00;;;;7384827;19;20141;-73
2023/05/26 05:54:52;;;;;;;9.07;6.13;;;12.50;1.00;14.10;94756.00;;;;7382140;19;20133;-73
2023/05/26 05:57:19;;;;;;;15.75;5.95;;;12.70;1.00;14.40;94746.00;;;;7383825;19;20156;-73
2023/05/26 05:59:53;;;;;;;11.50;5.65;;;13.00;1.00;14.80;94727.00;;;;7384525;19;23053;-71
2023/05/26 06:02:21;;;;;;;9.95;5.40;;;13.30;1.00;15.20;94720.00;;;;7382470;19;20656;-72
2023/05/26 06:05:01;;;;;;;9.40;6.18;;;13.60;1.00;15.50;94738.00;;;;7383161;19;20679;-72
2023/05/26 06:07:30;;;;;;;11.00;5.60;;;13.90;99.90;15.50;94741.00;;;;7384488;19;20180;-73
2023/05/26 06:10:07;;;;;;;9.35;5.70;;;14.10;99.90;15.90;94758.00;;;;7384003;19;20172;-72
2023/05/26 06:12:34;;;;;;;11.55;6.07;;;14.40;99.90;15.80;94761.00;;;;7383736;19;20157;-73
2023/05/26 06:15:14;;;;;;;9.05;5.70;;;14.80;99.90;16.10;94764.00;;;;7381979;19;20139;-73
2023/05/26 06:17:41;;;;;;;12.43;5.78;;;15.00;99.90;16.30;94749.00;;;;7385713;19;20203;-74
2023/05/26 06:20:16;;;;;;;14.30;6.13;;;15.30;1.00;16.30;94771.00;;;;7384242;19;20169;-73
2023/05/26 06:22:53;;;;;;;14.82;5.97;;;15.50;99.90;16.50;94764.00;;;;7382332;19;20265;-73
2023/05/26 06:25:26;;;;;;;10.30;5.88;;;15.70;39.70;16.80;94757.00;;;;7383416;19;20152;-72
2023/05/26 06:27:53;;;;;;;9.85;5.85;;;15.90;1.00;17.10;94756.00;;;;7383880;19;20125;-73
2023/05/26 06:30:21;;;;;;;9.48;5.70;;;16.10;1.00;17.50;94774.00;;;;7385095;19;20135;-72
2023/05/26 06:32:55;;;;;;;8.18;5.18;;;16.20;1.00;18.00;94773.00;;;;7382200;19;20129;-72
2023/05/26 06:35:24;;;;;;;13.05;5.95;;;16.50;1.00;18.10;94729.00;;;;7382776;19;20152;-72
2023/05/26 06:37:58;;;;;;;11.23;5.38;;;16.40;99.90;17.60;94773.00;;;;7383863;19;20503;-73
2023/05/26 06:40:25;;;;;;;8.30;5.68;;;16.20;99.90;18.00;94779.00;;;;7384927;19;20148;-73
2023/05/26 06:42:59;;;;;;;14.75;5.60;;;16.30;37.90;18.20;94762.00;;;;7382727;19;20603;-72
2023/05/26 06:45:27;;;;;;;9.93;6.13;;;16.20;61.10;18.60;94774.00;;;;7384882;19;20128;-72
2023/05/26 06:48:00;;;;;;;8.98;5.43;;;16.30;1.00;18.50;94776.00;;;;7383075;19;20129;-72
2023/05/26 06:50:28;;;;;;;12.02;5.60;;;16.40;1.00;18.90;94765.00;;;;7382774;19;20128;-72
2023/05/26 06:53:01;;;;;;;9.23;6.15;;;16.40;1.00;18.90;94763.00;;;;7382211;19;20775;-72
2023/05/26 06:55:29;;;;;;;6.65;5.50;;;16.50;1.00;18.80;94782.00;;;;7383418;19;20146;-73
2023/05/26 06:58:02;;;;;;;10.15;5.63;;;16.50;1.00;18.40;94781.00;;;;7382150;19;20152;-73
2023/05/26 07:00:36;;;;;;;9.35;5.60;;;16.50;1.00;18.40;94728.00;;;;7383387;19;20151;-73
2023/05/26 07:03:04;;;;;;;9.20;6.50;;;16.60;1.00;18.50;94781.00;;;;7382287;19;20634;-73
2023/05/26 07:05:48;;;;;;;12.13;6.80;;;16.60;1.00;18.60;94781.00;;;;7382317;19;20162;-72
2023/05/26 07:08:25;;;;;;;13.23;6.20;;;16.70;1.00;18.40;94788.00;;;;7384307;19;20143;-73
2023/05/26 07:10:52;;;;;;;8.63;5.80;;;16.70;1.00;18.40;94779.00;;;;7381123;19;20607;-72
2023/05/26 07:13:26;;;;;;;11.88;6.68;;;16.70;1.00;18.00;94789.00;;;;7384267;19;20133;-73
2023/05/26 07:15:53;;;;;;;12.48;6.47;;;16.80;1.00;18.70;94786.00;;;;7381458;19;20149;-72
2023/05/26 07:18:26;;;;;;;9.13;5.40;;;16.80;1.00;18.50;94796.00;;;;7382753;19;20156;-72
2023/05/26 07:20:55;;;;;;;14.65;7.47;;;16.90;99.90;18.70;94769.00;;;;7382720;19;20626;-73
2023/05/26 07:23:28;;;;;;;15.98;6.50;;;17.00;45.00;18.50;94772.00;;;;7382517;19;20606;-73
2023/05/26 07:25:56;;;;;;;10.68;5.53;;;17.10;17.60;18.90;94771.00;;;;7381968;19;20140;-73
2023/05/26 07:28:29;;;;;;;12.15;5.60;;;17.00;1.00;19.40;94778.00;;;;7382385;19;20616;-72
2023/05/26 07:30:57;;;;;;;8.73;5.45;;;17.00;1.00;19.40;94755.00;;;;7383804;19;20640;-73
2023/05/26 07:33:30;;;;;;;13.63;6.10;;;17.20;1.00;19.40;94791.00;;;;7382982;19;20132;-72
2023/05/26 07:35:58;;;;;;;11.85;5.65;;;17.20;1.00;19.50;94752.00;;;;7380304;19;20141;-72
2023/05/26 07:38:32;;;;;;;9.85;5.43;;;17.40;1.00;19.60;94787.00;;;;7373643;19;20191;-72
2023/05/26 07:41:08;;;;;;;11.32;6.28;;;17.40;1.00;19.50;94790.00;;;;7382686;19;20599;-74
2023/05/26 07:43:41;;;;;;;11.52;6.03;;;17.60;1.00;19.60;94779.00;;;;7381628;19;20144;-73
2023/05/26 07:46:15;;;;;;;10.32;6.25;;;17.60;1.00;19.80;94785.00;;;;7380938;19;20128;-73
2023/05/26 07:48:49;;;;;;;15.27;5.53;;;17.80;1.00;20.00;94789.00;;;;7383265;19;20164;-72
2023/05/26 07:51:23;;;;;;;11.05;6.28;;;17.80;1.00;19.60;94771.00;;;;7381555;19;20637;-72
2023/05/26 07:53:51;;;;;;;10.00;5.93;;;17.90;1.00;20.00;94779.00;;;;7381892;19;20607;-73
2023/05/26 07:56:25;;;;;;;9.98;5.72;;;18.00;1.00;20.10;94790.00;;;;7380989;19;20591;-72
2023/05/26 07:58:52;;;;;;;8.77;5.70;;;18.20;1.00;19.90;94773.00;;;;7383417;19;20133;-72
2023/05/26 08:01:26;;;;;;;12.00;5.63;;;18.30;1.00;20.10;94800.00;;;;7372129;19;20128;-72
2023/05/26 08:04:07;;;;;;;9.93;5.22;;;18.50;1.00;20.20;94799.00;;;;7381043;19;20503;-72
2023/05/26 08:06:35;;;;;;;10.73;5.57;;;18.40;1.00;20.40;94812.00;;;;7380020;19;20610;-73
2023/05/26 08:09:10;;;;;;;9.95;5.05;;;18.60;1.00;20.40;94793.00;;;;7383267;19;20158;-73
2023/05/26 08:11:45;;;;;;;9.88;5.65;;;18.80;1.00;20.70;94804.00;;;;7381300;19;20178;-73
2023/05/26 08:14:20;;;;;;;9.93;5.05;;;18.80;1.00;20.50;94792.00;;;;7379639;19;20150;-73
2023/05/26 08:16:53;;;;;;;10.07;6.22;;;19.00;1.00;20.80;94810.00;;;;7382466;19;20139;-73
2023/05/26 08:19:28;;;;;;;8.57;5.22;;;19.10;1.00;21.00;94798.00;;;;7388626;19;20593;-72
2023/05/26 08:22:02;;;;;;;8.57;5.22;;;19.30;1.00;21.50;94803.00;;;;7384323;19;20595;-73
2023/05/26 08:24:35;;;;;;;9.85;5.20;;;19.40;1.00;21.80;94795.00;;;;7387226;19;20140;-72
2023/05/26 08:27:09;;;;;;;10.27;5.10;;;19.50;1.00;21.70;94803.00;;;;7386483;19;20139;-73
2023/05/26 08:29:43;;;;;;;10.77;5.40;;;19.50;1.00;22.10;94791.00;;;;7387169;19;20160;-73
2023/05/26 08:32:11;;;;;;;11.07;5.05;;;19.70;1.00;22.40;94772.00;;;;7387331;19;20153;-72
2023/05/26 08:34:44;;;;;;;10.18;5.32;;;20.00;1.00;22.40;94782.00;;;;7387166;19;20149;-72
2023/05/26 08:37:13;;;;;;;8.65;5.30;;;20.00;1.00;21.80;94794.00;;;;7388083;19;20124;-72
2023/05/26 08:39:46;;;;;;;8.75;5.10;;;19.90;1.00;21.60;94806.00;;;;7386258;19;20170;-71
2023/05/26 08:42:22;;;;;;;10.60;5.80;;;19.90;1.00;21.80;94800.00;;;;7387720;19;20168;-71
2023/05/26 08:45:01;;;;;;;11.90;5.35;;;20.00;1.00;22.20;94804.00;;;;7387911;19;20125;-72
2023/05/26 08:47:34;;;;;;;10.23;4.68;;;20.00;1.00;22.40;94802.00;;;;7386214;19;20149;-73
2023/05/26 08:50:11;;;;;;;6.75;4.80;;;20.10;1.00;21.80;94804.00;;;;7386084;19;20442;-73
2023/05/26 08:52:41;;;;;;;12.25;4.82;;;20.20;1.00;21.50;94793.00;;;;7385785;19;20133;-73
2023/05/26 08:55:28;;;;;;;13.65;5.75;;;20.30;1.00;22.60;94800.00;;;;7386085;19;20140;-73
2023/05/26 08:58:03;;;;;;;6.78;4.63;;;20.50;1.00;23.00;94778.00;;;;7385655;19;20610;-72
2023/05/26 09:00:32;;;;;;;7.15;5.07;;;20.70;1.00;22.90;94794.00;;;;7387523;19;20496;-73
2023/05/26 09:03:12;;;;;;;10.48;5.45;;;20.90;1.00;22.70;94792.00;;;;7385192;19;20172;-72
2023/05/26 09:05:46;;;;;;;11.77;5.43;;;21.10;1.00;23.20;94796.00;;;;7385890;19;20128;-73
2023/05/26 09:08:20;;;;;;;8.20;4.60;;;21.20;1.00;23.10;94785.00;;;;7385694;19;20148;-73
2023/05/26 09:10:54;;;;;;;6.80;4.88;;;21.30;1.00;23.10;94781.00;;;;7386020;19;20163;-72
2023/05/26 09:13:38;;;;;;;10.07;4.97;;;21.40;1.00;23.20;94792.00;;;;7387647;19;20128;-71
2023/05/26 09:16:14;;;;;;;10.43;4.88;;;21.60;1.00;23.30;94800.00;;;;7384890;19;20132;-73
2023/05/26 09:18:58;;;;;;;8.63;5.13;;;21.50;1.00;23.70;94805.00;;;;7386389;19;20156;-72
2023/05/26 09:21:27;;;;;;;7.30;5.00;;;21.60;1.00;23.00;94808.00;;;;7385967;19;20142;-72
2023/05/26 09:24:01;;;;;;;7.20;4.43;;;21.50;1.00;23.40;94777.00;;;;7386384;19;20134;-72
2023/05/26 09:26:34;;;;;;;10.55;5.40;;;21.80;1.00;23.30;94795.00;;;;7386201;19;21358;-71
2023/05/26 09:29:07;;;;;;;10.57;4.85;;;21.90;1.00;23.50;94807.00;;;;7385898;19;20141;-71
2023/05/26 09:31:51;;;;;;;11.63;4.93;;;22.10;1.00;23.60;94796.00;;;;7387698;19;20571;-72
2023/05/26 09:34:26;;;;;;;10.60;5.40;;;22.10;1.00;23.80;94817.00;;;;7386502;19;20156;-72
2023/05/26 09:36:53;;;;;;;7.90;4.90;;;22.00;1.00;23.00;94778.00;;;;7385220;19;20148;-72
2023/05/26 09:39:32;;;;;;;9.52;4.90;;;22.00;1.00;23.30;94797.00;;;;7385555;19;20468;-73
2023/05/26 09:42:07;;;;;;;9.27;5.00;;;22.10;1.00;23.50;94811.00;;;;7385237;19;20141;-73
2023/05/26 09:44:50;;;;;;;15.20;5.68;;;22.20;1.00;23.50;94818.00;;;;7385792;19;20152;-72
2023/05/26 09:47:21;;;;;;;11.63;5.28;;;22.10;1.00;23.80;94814.00;;;;7385310;19;20125;-75
2023/05/26 09:50:05;;;;;;;7.75;5.18;;;22.20;1.00;24.00;94807.00;;;;7386926;19;20161;-72
2023/05/26 09:52:34;;;;;;;11.00;5.50;;;22.40;1.00;23.20;94821.00;;;;7385401;19;20587;-72
2023/05/26 09:55:08;;;;;;;11.45;5.93;;;22.40;1.00;23.90;94802.00;;;;7384753;19;20215;-73
2023/05/26 09:57:38;;;;;;;8.25;5.38;;;;;23.90;94820.00;;;;7385156;19;20148;-75
2023/05/26 10:00:16;;;;;;;10.40;5.28;;;22.30;99.90;24.20;94808.00;;;;7384270;19;20157;-73
2023/05/26 10:02:50;;;;;;;10.85;5.63;;;22.30;99.90;24.10;94803.00;;;;7384371;19;20179;-73
2023/05/26 10:05:31;;;;;;;11.73;5.75;;;22.30;99.90;24.80;94813.00;;;;7386755;19;20133;-73
2023/05/26 10:08:06;;;;;;;10.27;5.55;;;22.20;81.70;24.80;94806.00;;;;7384067;19;20162;-73
2023/05/26 10:10:34;;;;;;;8.55;5.05;;;22.30;75.70;24.70;94809.00;;;;7384408;19;20149;-72
2023/05/26 10:13:08;;;;;;;12.73;5.85;;;22.40;48.80;24.60;94804.00;;;;7385070;19;20216;-72
2023/05/26 10:15:36;;;;;;;8.93;5.10;;;22.50;50.20;24.20;94802.00;;;;7383861;19;20197;-71
2023/05/26 10:18:10;;;;;;;11.95;5.68;;;22.50;41.90;24.40;94805.00;;;;7385371;19;20564;-74
2023/05/26 10:20:38;;;;;;;8.80;5.20;;;22.60;28.60;24.30;94791.00;;;;7385974;19;20135;-72
2023/05/26 10:23:27;;;;;;;10.63;4.88;;;22.90;25.30;24.80;94793.00;;;;7385796;19;20666;-71
2023/05/26 10:26:08;;;;;;;9.85;5.80;;;23.20;21.90;25.00;94790.00;;;;7383944;19;20187;-73
2023/05/26 10:28:56;;;;;;;10.50;5.60;;;23.60;18.50;25.40;94797.00;;;;7384090;19;20129;-72
2023/05/26 10:31:35;;;;;;;12.85;6.10;;;23.60;14.70;23.90;94831.00;;;;7385779;19;20154;-72
2023/05/26 10:34:42;;;;;;;11.15;5.65;;;23.40;13.70;24.00;94807.00;;;;7382944;19;20152;-72
2023/05/26 10:37:17;;;;;;;9.52;5.70;;;23.20;17.30;24.50;94815.00;;;;7382120;19;20145;-71
2023/05/26 10:39:52;;;;;;;11.52;6.50;;;23.30;12.60;25.00;94795.00;;;;7382222;19;20662;-72
2023/05/26 10:42:20;;;;;;;13.13;6.80;;;23.40;10.40;24.40;94805.00;;;;7375624;19;20590;-73
2023/05/26 10:44:55;;;;;;;13.00;5.80;;;23.50;9.30;24.10;94808.00;;;;7382047;19;20526;-74
2023/05/26 10:47:30;;;;;;;10.38;6.15;;;23.30;16.60;24.30;94807.00;;;;7383362;19;20651;-73
2023/05/26 10:50:04;;;;;;;9.27;6.32;;;23.40;2.50;24.50;94809.00;;;;7384876;19;20139;-72
2023/05/26 10:52:51;;;;;;;7.28;5.60;;;23.30;3.90;24.50;94810.00;;;;7379326;19;20129;-72
2023/05/26 10:55:51;;;;;;;12.00;6.45;;;23.40;8.90;24.70;94813.00;;;;7382020;19;20145;-74
2023/05/26 10:59:02;;;;;;;13.32;6.32;;;23.60;55.80;25.40;94802.00;;;;7382033;19;20121;-72
2023/05/26 11:01:32;;;;;;;9.60;6.32;;;23.80;83.40;23.30;94775.00;;;;7380762;19;20145;-72
2023/05/26 11:04:15;;;;;;;9.18;6.15;;;23.80;76.80;24.90;94810.00;;;;7380938;19;20184;-72
2023/05/26 11:07:00;;;;;;;12.00;6.15;;;;;25.60;94820.00;;;;7381733;19;20547;-71
2023/05/26 11:09:37;;;;;;;10.38;6.80;;;;;24.80;94819.00;;;;7380072;19;20156;-73
2023/05/26 11:12:13;;;;;;;8.43;6.07;;;;;25.70;94812.00;;;;7380286;19;20136;-71
2023/05/26 11:14:51;;;;;;;10.02;6.63;;;;;25.40;94815.00;;;;7382682;19;20615;-73
2023/05/26 11:17:20;;;;;;;9.45;5.97;;;;;25.70;94819.00;;;;7383587;19;20125;-74
2023/05/26 11:19:58;;;;;;;11.38;6.85;;;;;26.50;94826.00;;;;7382612;19;20144;-73
2023/05/26 11:22:34;;;;;;;8.30;6.43;;;;;26.30;94814.00;;;;7381900;19;20144;-73
2023/05/26 11:25:03;;;;;;;13.02;6.53;;;;;26.40;94818.00;;;;7383415;19;20169;-73
2023/05/26 11:27:46;;;;;;;10.80;6.05;;;;;26.00;94813.00;;;;7384157;19;21570;-72
2023/05/26 11:30:15;;;;;;;9.85;5.78;;;;;26.20;94817.00;;;;7383896;19;20151;-74